createdAt,value
2023-03-25T00:00:21.328Z,66.35
2023-03-25T00:02:53.681Z,66.82
2023-03-25T00:05:23.638Z,66.87
2023-03-25T00:07:54.214Z,66.97
2023-03-25T00:10:22.593Z,67.15
2023-03-25T00:12:52.524Z,66.68
2023-03-25T00:15:22.322Z,66.23
2023-03-25T00:17:52.306Z,66.08
2023-03-25T00:20:21.487Z,66.26
2023-03-25T00:22:49.806Z,65.96
2023-03-25T00:25:20.397Z,66.53
2023-03-25T00:27:51.202Z,66.33
2023-03-25T00:30:21.212Z,66.71
2023-03-25T00:32:53.847Z,66.50
2023-03-25T00:35:24.128Z,66.50
2023-03-25T00:37:57.521Z,66.48
2023-03-25T00:40:28.466Z,66.28
2023-03-25T00:42:58.294Z,66.12
2023-03-25T00:45:26.737Z,66.56
2023-03-25T00:47:57.132Z,66.46
2023-03-25T00:50:26.186Z,66.78
2023-03-25T00:52:54.973Z,66.90
2023-03-25T00:55:23.382Z,66.09
2023-03-25T00:57:51.775Z,66.87
2023-03-25T01:00:20.949Z,66.43
2023-03-25T01:02:53.785Z,66.85
2023-03-25T01:05:24.053Z,67.10
2023-03-25T01:07:52.647Z,67.90
2023-03-25T01:10:21.306Z,67.72
2023-03-25T01:12:50.028Z,67.47
2023-03-25T01:15:20.037Z,67.47
2023-03-25T01:17:48.776Z,67.18
2023-03-25T01:20:17.665Z,67.01
2023-03-25T01:22:48.340Z,67.58
2023-03-25T01:25:16.965Z,68.32
2023-03-25T01:27:45.416Z,68.76
2023-03-25T01:30:16.429Z,68.78
2023-03-25T01:32:44.997Z,71.14
2023-03-25T01:35:13.468Z,71.46
2023-03-25T01:37:44.767Z,72.12
2023-03-25T01:40:21.143Z,72.65
2023-03-25T01:42:49.632Z,72.42
2023-03-25T01:45:30.696Z,72.38
2023-03-25T01:48:11.435Z,72.57
2023-03-25T01:50:43.529Z,71.76
2023-03-25T01:53:12.479Z,72.07
2023-03-25T01:55:42.292Z,72.57
2023-03-25T01:58:16.496Z,73.24
2023-03-25T02:00:47.779Z,74.33
2023-03-25T02:03:18.962Z,74.56
2023-03-25T02:05:56.095Z,75.38
2023-03-25T02:08:26.958Z,75.82
2023-03-25T02:10:56.840Z,77.53
2023-03-25T02:13:25.408Z,77.20
2023-03-25T02:16:14.593Z,77.80
2023-03-25T02:18:57.281Z,78.63
2023-03-25T02:22:14.786Z,78.56
2023-03-25T02:25:19.228Z,79.30
2023-03-25T02:28:04.900Z,78.79
2023-03-25T02:31:11.161Z,78.75
2023-03-25T02:34:26.479Z,78.92
2023-03-25T02:37:46.826Z,79.21
2023-03-25T02:40:24.859Z,79.03
2023-03-25T02:43:01.245Z,79.05
2023-03-25T02:45:33.663Z,79.38
2023-03-25T02:48:06.545Z,78.75
2023-03-25T02:50:39.527Z,78.86
2023-03-25T02:53:15.472Z,78.87
2023-03-25T02:55:48.059Z,78.47
2023-03-25T02:58:21.516Z,78.25
2023-03-25T03:00:52.154Z,78.48
2023-03-25T03:03:20.652Z,78.71
2023-03-25T03:05:54.283Z,78.25
2023-03-25T03:08:45.304Z,78.55
2023-03-25T03:11:20.508Z,78.91
2023-03-25T03:14:17.762Z,78.56
2023-03-25T03:16:58.554Z,78.88
2023-03-25T03:19:39.137Z,78.91
2023-03-25T03:22:22.588Z,79.19
2023-03-25T03:24:57.199Z,79.26
2023-03-25T03:27:34.206Z,79.43
2023-03-25T03:30:12.139Z,79.79
2023-03-25T03:32:47.204Z,79.99
2023-03-25T03:35:23.850Z,80.02
2023-03-25T03:37:59.995Z,79.27
2023-03-25T03:40:32.840Z,79.12
2023-03-25T03:43:07.947Z,79.05
2023-03-25T03:45:41.482Z,79.33
2023-03-25T03:48:14.042Z,79.70
2023-03-25T03:50:50.523Z,79.33
2023-03-25T03:53:24.952Z,79.46
2023-03-25T03:56:01.888Z,78.53
2023-03-25T03:58:35.756Z,78.72
2023-03-25T04:01:10.851Z,78.50
2023-03-25T04:03:45.263Z,78.18
2023-03-25T04:06:24.405Z,77.49
2023-03-25T04:08:59.905Z,76.60
2023-03-25T04:11:35.310Z,77.06
2023-03-25T04:14:06.796Z,76.86
2023-03-25T04:16:37.535Z,76.60
2023-03-25T04:19:06.759Z,76.48
2023-03-25T04:21:35.268Z,76.97
2023-03-25T04:24:04.659Z,76.42
2023-03-25T04:26:34.059Z,76.51
2023-03-25T04:29:04.838Z,76.48
2023-03-25T04:31:33.279Z,76.66
2023-03-25T04:34:03.021Z,76.26
2023-03-25T04:36:33.684Z,77.19
2023-03-25T04:39:02.267Z,76.82
2023-03-25T04:41:32.135Z,76.75
2023-03-25T04:44:00.689Z,77.38
2023-03-25T04:46:31.076Z,76.91
2023-03-25T04:49:00.512Z,78.32
2023-03-25T04:51:30.228Z,78.42
2023-03-25T04:53:58.560Z,78.85
2023-03-25T04:56:27.144Z,78.45
2023-03-25T04:58:55.446Z,78.79
2023-03-25T05:01:30.546Z,78.38
2023-03-25T05:04:06.083Z,78.36
2023-03-25T05:06:35.648Z,78.08
2023-03-25T05:09:05.982Z,78.06
2023-03-25T05:11:39.485Z,78.02
2023-03-25T05:14:08.272Z,78.22
2023-03-25T05:16:36.868Z,78.44
2023-03-25T05:19:10.846Z,77.88
2023-03-25T05:21:41.193Z,78.03
2023-03-25T05:24:11.860Z,77.86
2023-03-25T05:26:41.970Z,77.59
2023-03-25T05:29:14.424Z,77.75
2023-03-25T05:31:44.817Z,77.48
2023-03-25T05:34:17.222Z,77.86
2023-03-25T05:36:46.089Z,77.48
2023-03-25T05:39:15.606Z,77.82
2023-03-25T05:41:46.108Z,77.46
2023-03-25T05:44:15.419Z,77.08
2023-03-25T05:46:44.189Z,77.15
2023-03-25T05:49:14.170Z,76.57
2023-03-25T05:51:45.240Z,76.29
2023-03-25T05:54:13.741Z,76.79
2023-03-25T05:56:42.958Z,75.68
2023-03-25T05:59:11.455Z,75.21
2023-03-25T06:01:41.964Z,75.67
2023-03-25T06:04:13.121Z,75.71
2023-03-25T06:06:43.251Z,75.61
2023-03-25T06:09:12.182Z,75.59
2023-03-25T06:11:40.585Z,75.16
2023-03-25T06:14:09.266Z,74.64
2023-03-25T06:16:37.866Z,74.40
2023-03-25T06:19:06.226Z,73.95
2023-03-25T06:21:37.087Z,73.79
2023-03-25T06:24:08.215Z,73.87
2023-03-25T06:26:37.149Z,73.09
2023-03-25T06:29:05.620Z,73.82
2023-03-25T06:31:34.496Z,73.59
2023-03-25T06:34:03.396Z,73.09
2023-03-25T06:36:32.359Z,73.96
2023-03-25T06:39:00.762Z,75.00
2023-03-25T06:41:32.161Z,76.14
2023-03-25T06:44:24.451Z,77.19
2023-03-25T06:47:13.685Z,77.67
2023-03-25T06:49:46.902Z,77.90
2023-03-25T06:52:15.424Z,77.85
2023-03-25T06:54:44.070Z,77.43
2023-03-25T06:57:14.146Z,77.26
2023-03-25T06:59:42.596Z,76.77
2023-03-25T07:02:13.489Z,76.44
2023-03-25T07:04:41.815Z,76.63
2023-03-25T07:07:10.917Z,77.45
2023-03-25T07:09:39.837Z,77.69
2023-03-25T07:12:09.563Z,78.40
2023-03-25T07:14:40.045Z,78.48
2023-03-25T07:17:09.539Z,78.54
2023-03-25T07:19:38.016Z,79.08
2023-03-25T07:22:06.451Z,78.58
2023-03-25T07:24:34.945Z,78.75
2023-03-25T07:27:03.604Z,78.42
2023-03-25T07:29:33.716Z,77.76
2023-03-25T07:32:03.694Z,77.84
2023-03-25T07:34:32.202Z,77.76
2023-03-25T07:37:00.688Z,76.83
2023-03-25T07:39:29.255Z,77.30
2023-03-25T07:41:57.784Z,77.04
2023-03-25T07:44:48.986Z,76.05
2023-03-25T07:47:18.894Z,75.61
2023-03-25T07:49:47.801Z,75.84
2023-03-25T07:52:17.559Z,74.92
2023-03-25T07:54:46.023Z,75.08
2023-03-25T07:57:14.413Z,74.55
2023-03-25T07:59:42.848Z,74.42
2023-03-25T08:02:13.368Z,75.06
2023-03-25T08:04:44.258Z,75.34
2023-03-25T08:07:12.722Z,75.76
2023-03-25T08:09:42.567Z,75.03
2023-03-25T08:12:11.050Z,74.47
2023-03-25T08:14:39.450Z,74.49
2023-03-25T08:17:10.504Z,73.81
2023-03-25T08:19:38.885Z,74.16
2023-03-25T08:22:08.638Z,74.34
2023-03-25T08:24:37.185Z,74.67
2023-03-25T08:27:16.286Z,75.45
2023-03-25T08:29:47.327Z,75.74
2023-03-25T08:32:15.989Z,75.98
2023-03-25T08:34:44.539Z,75.86
2023-03-25T08:37:15.412Z,76.19
2023-03-25T08:39:45.065Z,75.67
2023-03-25T08:42:14.516Z,76.00
2023-03-25T08:44:42.903Z,76.30
2023-03-25T08:47:13.765Z,77.30
2023-03-25T08:49:42.196Z,77.79
2023-03-25T08:52:10.831Z,77.72
2023-03-25T08:54:42.952Z,78.54
2023-03-25T08:57:11.550Z,78.25
2023-03-25T08:59:40.044Z,78.52
2023-03-25T09:02:08.858Z,79.18
2023-03-25T09:04:38.955Z,78.57
2023-03-25T09:07:12.633Z,77.43
2023-03-25T09:09:42.745Z,77.15
2023-03-25T09:12:11.252Z,76.84
2023-03-25T09:14:39.833Z,75.77
2023-03-25T09:17:10.309Z,76.25
2023-03-25T09:19:38.835Z,75.17
2023-03-25T09:22:09.429Z,76.39
2023-03-25T09:24:44.946Z,76.43
2023-03-25T09:27:13.446Z,76.26
2023-03-25T09:29:42.060Z,75.99
2023-03-25T09:32:10.663Z,75.40
2023-03-25T09:34:39.501Z,73.99
2023-03-25T09:37:07.909Z,74.28
2023-03-25T09:39:36.518Z,73.18
2023-03-25T09:42:36.873Z,72.46
2023-03-25T09:45:26.589Z,71.92
2023-03-25T09:48:02.216Z,72.47
2023-03-25T09:50:33.068Z,73.10
2023-03-25T09:53:06.285Z,71.95
2023-03-25T09:55:41.760Z,71.57
2023-03-25T09:58:28.722Z,71.12
2023-03-25T10:01:02.654Z,70.26
2023-03-25T10:03:38.654Z,70.30
2023-03-25T10:06:19.742Z,70.34
2023-03-25T10:09:06.122Z,69.10
2023-03-25T10:11:47.290Z,67.73
2023-03-25T10:14:22.785Z,67.08
2023-03-25T10:17:13.162Z,66.94
2023-03-25T10:20:05.468Z,67.05
2023-03-25T10:22:42.889Z,64.56
2023-03-25T10:25:16.928Z,63.85
2023-03-25T10:27:50.078Z,63.24
2023-03-25T10:30:23.888Z,63.97
2023-03-25T10:32:57.147Z,63.91
2023-03-25T10:35:30.982Z,62.96
2023-03-25T10:38:08.757Z,62.12
2023-03-25T10:40:50.168Z,63.32
2023-03-25T10:43:28.202Z,62.99
2023-03-25T10:46:04.625Z,63.11
2023-03-25T10:48:34.848Z,62.51
2023-03-25T10:51:09.459Z,63.30
2023-03-25T10:53:38.618Z,63.58
2023-03-25T10:56:13.767Z,66.06
2023-03-25T10:58:44.839Z,68.38
2023-03-25T11:01:18.497Z,71.04
2023-03-25T11:03:52.106Z,70.88
2023-03-25T11:06:29.686Z,71.11
2023-03-25T11:09:12.336Z,71.53
2023-03-25T11:11:41.781Z,71.32
2023-03-25T11:14:10.433Z,71.12
2023-03-25T11:16:46.947Z,71.35
2023-03-25T11:19:24.123Z,68.14
2023-03-25T11:21:58.070Z,68.85
2023-03-25T11:24:33.685Z,69.91
2023-03-25T11:27:04.146Z,70.92
2023-03-25T11:29:33.161Z,70.66
2023-03-25T11:32:14.248Z,69.28
2023-03-25T11:34:42.918Z,70.50
2023-03-25T11:37:19.124Z,69.39
2023-03-25T11:39:55.306Z,68.94
2023-03-25T11:42:33.606Z,67.63
2023-03-25T11:45:03.661Z,64.16
2023-03-25T11:47:36.792Z,63.34
2023-03-25T11:50:07.486Z,62.91
2023-03-25T11:52:44.552Z,62.63
2023-03-25T11:55:21.104Z,62.87
2023-03-25T11:57:51.464Z,62.68
2023-03-25T12:00:34.069Z,62.60
2023-03-25T12:03:08.189Z,62.14
2023-03-25T12:05:37.284Z,62.06
2023-03-25T12:08:15.417Z,61.95
2023-03-25T12:10:54.374Z,61.27
2023-03-25T12:13:47.736Z,60.99
2023-03-25T12:16:29.486Z,62.20
2023-03-25T12:19:19.784Z,62.04
2023-03-25T12:22:08.480Z,62.85
2023-03-25T12:24:59.598Z,62.79
2023-03-25T12:27:45.442Z,62.23
2023-03-25T12:30:34.023Z,63.08
2023-03-25T12:33:18.404Z,66.57
2023-03-25T12:36:08.471Z,66.83
2023-03-25T12:38:50.586Z,67.35
2023-03-25T12:41:25.564Z,66.58
2023-03-25T12:44:08.844Z,65.55
2023-03-25T12:47:05.749Z,65.50
2023-03-25T12:49:52.624Z,66.44
2023-03-25T12:52:31.088Z,65.37
2023-03-25T12:55:20.995Z,63.14
2023-03-25T12:58:11.395Z,61.55
2023-03-25T13:00:54.831Z,62.58
2023-03-25T13:03:47.272Z,63.04
2023-03-25T13:06:30.284Z,61.53
2023-03-25T13:09:08.374Z,61.73
2023-03-25T13:11:43.389Z,61.56
2023-03-25T13:14:20.821Z,60.31
2023-03-25T13:16:52.215Z,59.98
2023-03-25T13:19:24.672Z,59.61
2023-03-25T13:21:57.450Z,60.16
2023-03-25T13:24:40.228Z,58.44
2023-03-25T13:27:09.152Z,59.36
2023-03-25T13:29:43.819Z,58.33
2023-03-25T13:32:21.726Z,57.42
2023-03-25T13:34:56.904Z,58.03
2023-03-25T13:37:32.786Z,57.34
2023-03-25T13:40:24.869Z,57.48
2023-03-25T13:43:00.600Z,57.41
2023-03-25T13:45:36.567Z,56.80
2023-03-25T13:48:14.097Z,56.21
2023-03-25T13:50:42.911Z,56.91
2023-03-25T13:53:20.182Z,57.19
2023-03-25T13:56:00.003Z,57.52
2023-03-25T13:59:04.167Z,57.04
2023-03-25T14:02:11.708Z,56.52
2023-03-25T14:05:38.855Z,55.38
2023-03-25T14:09:18.610Z,55.12
2023-03-25T14:11:53.627Z,56.05
2023-03-25T14:14:23.946Z,55.45
2023-03-25T14:16:58.214Z,55.86
2023-03-25T14:19:31.602Z,55.75
2023-03-25T14:22:01.021Z,55.60
2023-03-25T14:24:33.745Z,54.88
2023-03-25T14:27:07.950Z,55.39
2023-03-25T14:29:41.908Z,55.94
2023-03-25T14:32:38.068Z,55.20
2023-03-25T14:35:53.217Z,55.30
2023-03-25T14:38:53.866Z,56.30
2023-03-25T14:41:58.535Z,57.49
2023-03-25T14:44:32.827Z,57.72
2023-03-25T14:47:05.038Z,57.53
2023-03-25T14:49:54.419Z,57.24
2023-03-25T14:52:31.623Z,56.45
2023-03-25T14:55:06.219Z,55.93
2023-03-25T14:57:42.661Z,55.87
2023-03-25T15:00:26.431Z,56.21
2023-03-25T15:03:04.466Z,57.21
2023-03-25T15:05:35.261Z,57.80
2023-03-25T15:08:16.837Z,57.85
2023-03-25T15:10:50.198Z,58.23
2023-03-25T15:13:25.488Z,58.19
2023-03-25T15:16:01.779Z,57.60
2023-03-25T15:19:06.046Z,57.93
2023-03-25T15:22:11.328Z,57.66
2023-03-25T15:24:41.908Z,59.04
2023-03-25T15:27:25.868Z,58.77
2023-03-25T15:30:09.274Z,59.43
2023-03-25T15:33:02.065Z,59.15
2023-03-25T15:35:52.163Z,58.68
2023-03-25T15:38:51.961Z,59.25
2023-03-25T15:41:52.959Z,59.58
2023-03-25T15:45:01.980Z,59.63
2023-03-25T15:48:00.334Z,59.83
2023-03-25T15:50:46.321Z,60.24
2023-03-25T15:53:54.823Z,60.58
2023-03-25T15:56:27.324Z,60.68
2023-03-25T15:59:03.585Z,60.46
2023-03-25T16:01:35.455Z,60.20
2023-03-25T16:04:11.203Z,61.03
2023-03-25T16:06:46.472Z,60.79
2023-03-25T16:09:20.115Z,60.96
2023-03-25T16:11:48.690Z,62.04
2023-03-25T16:14:19.800Z,61.92
2023-03-25T16:16:52.463Z,62.12
2023-03-25T16:19:28.254Z,62.08
2023-03-25T16:21:57.076Z,62.30
2023-03-25T16:24:29.739Z,62.28
2023-03-25T16:26:58.274Z,62.62
2023-03-25T16:29:27.619Z,63.01
2023-03-25T16:31:59.217Z,63.20
2023-03-25T16:34:34.861Z,63.32
2023-03-25T16:37:03.913Z,63.52
2023-03-25T16:39:36.787Z,64.07
2023-03-25T16:42:13.499Z,64.79
2023-03-25T16:44:49.651Z,63.98
2023-03-25T16:47:19.395Z,64.53
2023-03-25T16:49:52.500Z,64.22
2023-03-25T16:52:27.653Z,64.52
2023-03-25T16:55:28.171Z,64.69
2023-03-25T16:57:57.015Z,64.54
2023-03-25T17:00:26.957Z,65.32
2023-03-25T17:02:57.042Z,64.98
2023-03-25T17:05:30.471Z,65.04
2023-03-25T17:08:03.628Z,65.41
2023-03-25T17:10:44.927Z,64.78
2023-03-25T17:13:24.549Z,65.33
2023-03-25T17:15:54.191Z,65.43
2023-03-25T17:18:28.758Z,65.82
2023-03-25T17:21:01.438Z,66.03
2023-03-25T17:23:37.375Z,65.94
2023-03-25T17:26:10.042Z,66.25
2023-03-25T17:28:41.240Z,66.09
2023-03-25T17:31:28.153Z,66.27
2023-03-25T17:34:03.165Z,66.04
2023-03-25T17:36:35.524Z,66.12
2023-03-25T17:39:06.807Z,66.37
2023-03-25T17:41:39.892Z,66.38
2023-03-25T17:44:09.143Z,66.30
2023-03-25T17:46:37.581Z,66.32
2023-03-25T17:49:16.803Z,66.83
2023-03-25T17:51:47.763Z,67.82
2023-03-25T17:54:16.330Z,70.37
2023-03-25T17:56:46.969Z,72.27
2023-03-25T17:59:19.285Z,72.66
2023-03-25T18:01:50.181Z,74.28
2023-03-25T18:04:21.126Z,74.15
2023-03-25T18:06:52.353Z,75.42
2023-03-25T18:09:23.450Z,72.02
2023-03-25T18:11:55.669Z,71.60
2023-03-25T18:14:26.060Z,74.53
2023-03-25T18:16:55.627Z,75.16
2023-03-25T18:19:27.591Z,75.53
2023-03-25T18:21:58.837Z,74.85
2023-03-25T18:24:30.488Z,75.05
2023-03-25T18:26:58.940Z,74.40
2023-03-25T18:29:29.588Z,73.07
2023-03-25T18:31:59.026Z,72.70
2023-03-25T18:34:28.852Z,72.99
2023-03-25T18:36:58.709Z,72.74
2023-03-25T18:39:29.252Z,72.58
2023-03-25T18:41:58.069Z,72.00
2023-03-25T18:44:28.667Z,72.13
2023-03-25T18:46:57.349Z,73.54
2023-03-25T18:49:26.018Z,76.31
2023-03-25T18:51:54.664Z,76.72
2023-03-25T18:54:24.515Z,76.64
2023-03-25T18:56:52.946Z,75.66
2023-03-25T18:59:21.994Z,77.72
2023-03-25T19:01:51.009Z,79.80
2023-03-25T19:04:19.325Z,81.07
2023-03-25T19:06:48.262Z,81.11
2023-03-25T19:09:19.290Z,81.14
2023-03-25T19:11:49.482Z,81.92
2023-03-25T19:14:17.806Z,82.10
2023-03-25T19:16:57.062Z,81.47
2023-03-25T19:19:30.085Z,81.65
2023-03-25T19:21:58.773Z,81.87
2023-03-25T19:24:27.187Z,82.33
2023-03-25T19:26:57.142Z,81.38
2023-03-25T19:29:25.754Z,81.12
2023-03-25T19:31:54.600Z,81.71
2023-03-25T19:34:23.179Z,81.54
2023-03-25T19:36:53.376Z,81.24
2023-03-25T19:39:23.038Z,80.76
2023-03-25T19:41:52.859Z,80.99
2023-03-25T19:44:25.509Z,82.16
2023-03-25T19:46:54.016Z,83.29
2023-03-25T19:49:36.374Z,83.88
2023-03-25T19:52:08.445Z,83.14
2023-03-25T19:54:37.261Z,80.74
2023-03-25T19:57:06.135Z,80.59
2023-03-25T19:59:36.580Z,81.04
2023-03-25T20:02:05.694Z,80.50
2023-03-25T20:04:34.175Z,81.24
2023-03-25T20:07:02.566Z,80.78
2023-03-25T20:09:31.367Z,81.49
2023-03-25T20:11:59.988Z,82.00
2023-03-25T20:14:28.958Z,81.71
2023-03-25T20:16:58.824Z,81.32
2023-03-25T20:19:28.200Z,81.10
2023-03-25T20:21:56.666Z,81.07
2023-03-25T20:24:25.105Z,80.68
2023-03-25T20:26:53.657Z,80.58
2023-03-25T20:29:23.165Z,80.38
2023-03-25T20:31:51.618Z,80.80
2023-03-25T20:34:21.387Z,80.25
2023-03-25T20:36:49.975Z,80.21
2023-03-25T20:39:18.735Z,80.12
2023-03-25T20:41:47.224Z,80.81
2023-03-25T20:44:15.839Z,80.95
2023-03-25T20:46:46.527Z,80.98
2023-03-25T20:49:15.619Z,80.95
2023-03-25T20:51:45.840Z,81.24
2023-03-25T20:54:15.004Z,80.61
2023-03-25T20:56:45.965Z,81.01
2023-03-25T20:59:16.782Z,81.64
2023-03-25T21:01:45.909Z,81.39
2023-03-25T21:04:14.981Z,81.50
2023-03-25T21:06:45.014Z,81.51
2023-03-25T21:09:13.584Z,81.76
2023-03-25T21:11:42.410Z,83.18
2023-03-25T21:14:12.610Z,83.08
2023-03-25T21:16:42.427Z,83.04
2023-03-25T21:19:10.884Z,82.96
2023-03-25T21:21:39.599Z,83.13
2023-03-25T21:24:10.120Z,83.32
2023-03-25T21:26:39.154Z,83.34
2023-03-25T21:29:07.643Z,82.74
2023-03-25T21:31:36.233Z,82.11
2023-03-25T21:34:04.947Z,82.35
2023-03-25T21:36:33.353Z,82.62
2023-03-25T21:39:04.281Z,82.21
2023-03-25T21:41:34.113Z,83.10
2023-03-25T21:44:02.597Z,82.94
2023-03-25T21:46:33.573Z,82.67
2023-03-25T21:49:03.917Z,82.94
2023-03-25T21:51:32.532Z,82.70
2023-03-25T21:54:01.437Z,83.02
2023-03-25T21:56:32.593Z,83.45
2023-03-25T21:59:05.006Z,83.76
2023-03-25T22:01:33.593Z,83.61
2023-03-25T22:04:03.930Z,84.47
2023-03-25T22:06:35.612Z,83.76
2023-03-25T22:09:06.550Z,84.19
2023-03-25T22:11:37.575Z,84.73
2023-03-25T22:14:09.753Z,84.61
2023-03-25T22:16:38.688Z,84.83
2023-03-25T22:19:07.977Z,84.46
2023-03-25T22:21:38.146Z,83.43
2023-03-25T22:24:08.889Z,84.21
2023-03-25T22:26:39.817Z,83.90
2023-03-25T22:29:11.618Z,83.44
2023-03-25T22:31:40.730Z,82.76
2023-03-25T22:34:12.932Z,82.47
2023-03-25T22:36:46.238Z,82.90
2023-03-25T22:39:14.632Z,82.78
2023-03-25T22:41:43.111Z,82.56
2023-03-25T22:44:14.985Z,81.64
2023-03-25T22:46:43.780Z,81.48
2023-03-25T22:49:12.314Z,81.59
2023-03-25T22:51:40.805Z,81.88
2023-03-25T22:54:09.948Z,81.70
2023-03-25T22:56:39.056Z,81.57
2023-03-25T22:59:08.763Z,81.20
2023-03-25T23:01:38.787Z,80.56
2023-03-25T23:04:07.653Z,80.69
2023-03-25T23:06:36.907Z,80.88
2023-03-25T23:09:08.950Z,80.92
2023-03-25T23:11:39.131Z,80.90
2023-03-25T23:14:10.721Z,80.28
2023-03-25T23:16:41.746Z,80.77
2023-03-25T23:19:10.569Z,80.81
2023-03-25T23:21:39.250Z,80.13
2023-03-25T23:24:08.718Z,80.16
2023-03-25T23:26:40.153Z,79.92
2023-03-25T23:29:12.276Z,79.81
2023-03-25T23:31:45.313Z,79.30
2023-03-25T23:34:17.614Z,79.44
2023-03-25T23:36:47.441Z,80.05
2023-03-25T23:39:22.212Z,80.16
2023-03-25T23:41:51.150Z,79.65
2023-03-25T23:44:19.615Z,80.12
2023-03-25T23:46:51.130Z,80.92
2023-03-25T23:49:20.866Z,81.55
2023-03-25T23:51:50.980Z,81.02
2023-03-25T23:54:19.517Z,80.85
2023-03-25T23:56:47.926Z,81.03
2023-03-25T23:59:18.355Z,80.88
